sensor_id;sensor_type;location;lat;lon;timestamp;P1;durP1;ratioP1;P2;durP2;ratioP2
45909;SDS011;31622;55.416;37.840;2023-08-24T00:01:16;5.03;;;2.50;;
45909;SDS011;31622;55.416;37.840;2023-08-24T00:03:43;4.78;;;2.70;;
45909;SDS011;31622;55.416;37.840;2023-08-24T00:06:11;6.43;;;2.60;;
45909;SDS011;31622;55.416;37.840;2023-08-24T00:08:37;4.47;;;2.38;;
45909;SDS011;31622;55.416;37.840;2023-08-24T00:11:03;4.63;;;2.70;;
45909;SDS011;31622;55.416;37.840;2023-08-24T00:13:29;6.13;;;3.00;;
45909;SDS011;31622;55.416;37.840;2023-08-24T00:15:55;4.10;;;2.30;;
45909;SDS011;31622;55.416;37.840;2023-08-24T00:18:21;3.63;;;2.53;;
45909;SDS011;31622;55.416;37.840;2023-08-24T00:20:49;5.43;;;2.40;;
45909;SDS011;31622;55.416;37.840;2023-08-24T00:23:15;5.13;;;3.00;;
45909;SDS011;31622;55.416;37.840;2023-08-24T00:25:41;4.15;;;2.55;;
45909;SDS011;31622;55.416;37.840;2023-08-24T00:28:07;5.85;;;2.78;;
45909;SDS011;31622;55.416;37.840;2023-08-24T00:30:32;5.18;;;2.60;;
45909;SDS011;31622;55.416;37.840;2023-08-24T00:32:58;4.50;;;2.83;;
45909;SDS011;31622;55.416;37.840;2023-08-24T00:35:24;5.65;;;2.53;;
45909;SDS011;31622;55.416;37.840;2023-08-24T00:37:50;5.35;;;2.88;;
45909;SDS011;31622;55.416;37.840;2023-08-24T00:40:16;4.45;;;2.50;;
45909;SDS011;31622;55.416;37.840;2023-08-24T00:42:44;5.55;;;2.88;;
45909;SDS011;31622;55.416;37.840;2023-08-24T00:45:11;4.10;;;3.10;;
45909;SDS011;31622;55.416;37.840;2023-08-24T00:47:42;5.43;;;3.10;;
45909;SDS011;31622;55.416;37.840;2023-08-24T00:52:36;6.95;;;3.15;;
45909;SDS011;31622;55.416;37.840;2023-08-24T00:55:05;7.95;;;3.47;;
45909;SDS011;31622;55.416;37.840;2023-08-24T00:57:31;5.90;;;3.05;;
45909;SDS011;31622;55.416;37.840;2023-08-24T00:59:59;6.25;;;3.75;;
45909;SDS011;31622;55.416;37.840;2023-08-24T01:02:30;5.80;;;3.38;;
45909;SDS011;31622;55.416;37.840;2023-08-24T01:04:56;8.02;;;4.03;;
45909;SDS011;31622;55.416;37.840;2023-08-24T01:07:22;5.30;;;4.03;;
45909;SDS011;31622;55.416;37.840;2023-08-24T01:09:47;5.80;;;3.33;;
45909;SDS011;31622;55.416;37.840;2023-08-24T01:17:42;6.60;;;3.42;;
45909;SDS011;31622;55.416;37.840;2023-08-24T01:20:09;5.10;;;3.80;;
45909;SDS011;31622;55.416;37.840;2023-08-24T01:27:34;7.50;;;4.20;;
45909;SDS011;31622;55.416;37.840;2023-08-24T01:30:00;7.85;;;4.25;;
45909;SDS011;31622;55.416;37.840;2023-08-24T01:32:32;6.32;;;3.33;;
45909;SDS011;31622;55.416;37.840;2023-08-24T01:35:03;6.28;;;3.97;;
45909;SDS011;31622;55.416;37.840;2023-08-24T01:37:32;5.95;;;3.80;;
45909;SDS011;31622;55.416;37.840;2023-08-24T01:40:06;6.43;;;4.00;;
45909;SDS011;31622;55.416;37.840;2023-08-24T01:45:22;5.20;;;3.78;;
45909;SDS011;31622;55.416;37.840;2023-08-24T01:47:53;6.10;;;3.67;;
45909;SDS011;31622;55.416;37.840;2023-08-24T01:50:20;5.65;;;4.07;;
45909;SDS011;31622;55.416;37.840;2023-08-24T01:52:46;4.78;;;3.70;;
45909;SDS011;31622;55.416;37.840;2023-08-24T01:55:12;5.50;;;3.40;;
45909;SDS011;31622;55.416;37.840;2023-08-24T01:57:40;5.82;;;3.55;;
45909;SDS011;31622;55.416;37.840;2023-08-24T02:00:06;6.55;;;3.63;;
45909;SDS011;31622;55.416;37.840;2023-08-24T02:02:38;6.43;;;3.72;;
45909;SDS011;31622;55.416;37.840;2023-08-24T02:05:04;5.68;;;3.45;;
45909;SDS011;31622;55.416;37.840;2023-08-24T02:07:30;5.68;;;3.47;;
45909;SDS011;31622;55.416;37.840;2023-08-24T02:09:56;6.20;;;3.78;;
45909;SDS011;31622;55.416;37.840;2023-08-24T02:12:22;6.88;;;3.85;;
45909;SDS011;31622;55.416;37.840;2023-08-24T02:14:48;3.92;;;3.17;;
45909;SDS011;31622;55.416;37.840;2023-08-24T02:17:14;4.32;;;3.30;;
45909;SDS011;31622;55.416;37.840;2023-08-24T02:19:40;6.57;;;3.45;;
45909;SDS011;31622;55.416;37.840;2023-08-24T02:22:08;6.13;;;3.50;;
45909;SDS011;31622;55.416;37.840;2023-08-24T02:24:33;6.10;;;3.60;;
45909;SDS011;31622;55.416;37.840;2023-08-24T02:26:59;4.90;;;3.40;;
45909;SDS011;31622;55.416;37.840;2023-08-24T02:29:25;4.57;;;3.25;;
45909;SDS011;31622;55.416;37.840;2023-08-24T02:31:51;5.75;;;3.58;;
45909;SDS011;31622;55.416;37.840;2023-08-24T02:34:17;5.32;;;3.40;;
45909;SDS011;31622;55.416;37.840;2023-08-24T02:36:43;5.55;;;3.30;;
45909;SDS011;31622;55.416;37.840;2023-08-24T02:39:09;6.03;;;3.20;;
45909;SDS011;31622;55.416;37.840;2023-08-24T02:41:35;6.30;;;3.40;;
45909;SDS011;31622;55.416;37.840;2023-08-24T02:44:01;6.72;;;4.30;;
45909;SDS011;31622;55.416;37.840;2023-08-24T02:46:27;8.48;;;3.63;;
45909;SDS011;31622;55.416;37.840;2023-08-24T02:48:53;7.15;;;3.97;;
45909;SDS011;31622;55.416;37.840;2023-08-24T02:51:21;6.38;;;4.00;;
45909;SDS011;31622;55.416;37.840;2023-08-24T02:53:47;7.10;;;3.78;;
45909;SDS011;31622;55.416;37.840;2023-08-24T02:56:13;9.18;;;4.60;;
45909;SDS011;31622;55.416;37.840;2023-08-24T02:58:39;5.97;;;4.07;;
45909;SDS011;31622;55.416;37.840;2023-08-24T03:01:07;6.03;;;4.30;;
45909;SDS011;31622;55.416;37.840;2023-08-24T03:03:33;8.80;;;4.35;;
45909;SDS011;31622;55.416;37.840;2023-08-24T03:06:03;6.68;;;3.90;;
45909;SDS011;31622;55.416;37.840;2023-08-24T03:08:31;9.23;;;4.18;;
45909;SDS011;31622;55.416;37.840;2023-08-24T03:10:58;7.88;;;4.05;;
45909;SDS011;31622;55.416;37.840;2023-08-24T03:13:24;8.18;;;4.80;;
45909;SDS011;31622;55.416;37.840;2023-08-24T03:15:52;6.43;;;4.35;;
45909;SDS011;31622;55.416;37.840;2023-08-24T03:18:19;6.63;;;3.58;;
45909;SDS011;31622;55.416;37.840;2023-08-24T03:20:45;6.78;;;4.00;;
45909;SDS011;31622;55.416;37.840;2023-08-24T03:23:13;9.40;;;4.80;;
45909;SDS011;31622;55.416;37.840;2023-08-24T03:25:40;6.88;;;4.00;;
45909;SDS011;31622;55.416;37.840;2023-08-24T03:28:07;8.27;;;4.53;;
45909;SDS011;31622;55.416;37.840;2023-08-24T03:30:35;5.82;;;3.90;;
45909;SDS011;31622;55.416;37.840;2023-08-24T03:33:01;6.60;;;4.55;;
45909;SDS011;31622;55.416;37.840;2023-08-24T03:35:31;8.82;;;5.20;;
45909;SDS011;31622;55.416;37.840;2023-08-24T03:37:58;5.60;;;3.97;;
45909;SDS011;31622;55.416;37.840;2023-08-24T03:40:25;6.53;;;4.28;;
45909;SDS011;31622;55.416;37.840;2023-08-24T03:42:51;7.32;;;4.32;;
45909;SDS011;31622;55.416;37.840;2023-08-24T03:45:18;6.60;;;4.25;;
45909;SDS011;31622;55.416;37.840;2023-08-24T03:47:43;7.35;;;4.30;;
45909;SDS011;31622;55.416;37.840;2023-08-24T03:50:09;8.43;;;4.30;;
45909;SDS011;31622;55.416;37.840;2023-08-24T03:52:35;8.93;;;4.65;;
45909;SDS011;31622;55.416;37.840;2023-08-24T03:55:01;6.78;;;5.05;;
45909;SDS011;31622;55.416;37.840;2023-08-24T03:57:27;7.47;;;4.85;;
45909;SDS011;31622;55.416;37.840;2023-08-24T03:59:53;6.82;;;5.00;;
45909;SDS011;31622;55.416;37.840;2023-08-24T04:02:19;8.70;;;5.13;;
45909;SDS011;31622;55.416;37.840;2023-08-24T04:04:45;7.47;;;4.82;;
45909;SDS011;31622;55.416;37.840;2023-08-24T04:07:11;8.60;;;4.75;;
45909;SDS011;31622;55.416;37.840;2023-08-24T04:09:37;6.50;;;4.78;;
45909;SDS011;31622;55.416;37.840;2023-08-24T04:12:03;8.20;;;4.53;;
45909;SDS011;31622;55.416;37.840;2023-08-24T04:14:29;6.20;;;5.00;;
45909;SDS011;31622;55.416;37.840;2023-08-24T04:16:55;6.50;;;4.80;;
45909;SDS011;31622;55.416;37.840;2023-08-24T04:19:21;7.10;;;4.80;;
45909;SDS011;31622;55.416;37.840;2023-08-24T04:21:46;8.02;;;4.55;;
45909;SDS011;31622;55.416;37.840;2023-08-24T04:24:12;7.47;;;5.18;;
45909;SDS011;31622;55.416;37.840;2023-08-24T04:26:38;7.55;;;4.63;;
45909;SDS011;31622;55.416;37.840;2023-08-24T04:29:03;6.53;;;4.68;;
45909;SDS011;31622;55.416;37.840;2023-08-24T04:31:29;9.38;;;5.25;;
45909;SDS011;31622;55.416;37.840;2023-08-24T04:33:55;8.80;;;4.60;;
45909;SDS011;31622;55.416;37.840;2023-08-24T04:36:20;7.25;;;5.10;;
45909;SDS011;31622;55.416;37.840;2023-08-24T04:38:46;7.03;;;4.57;;
45909;SDS011;31622;55.416;37.840;2023-08-24T04:41:12;10.00;;;5.38;;
45909;SDS011;31622;55.416;37.840;2023-08-24T04:43:37;7.63;;;4.68;;
45909;SDS011;31622;55.416;37.840;2023-08-24T04:46:03;6.97;;;5.20;;
45909;SDS011;31622;55.416;37.840;2023-08-24T04:48:29;6.68;;;4.90;;
45909;SDS011;31622;55.416;37.840;2023-08-24T04:50:58;6.72;;;4.90;;
45909;SDS011;31622;55.416;37.840;2023-08-24T04:53:25;7.10;;;5.20;;
45909;SDS011;31622;55.416;37.840;2023-08-24T04:55:51;5.93;;;4.70;;
45909;SDS011;31622;55.416;37.840;2023-08-24T04:58:17;9.98;;;5.60;;
45909;SDS011;31622;55.416;37.840;2023-08-24T05:00:43;9.07;;;4.60;;
45909;SDS011;31622;55.416;37.840;2023-08-24T05:03:09;8.18;;;4.97;;
45909;SDS011;31622;55.416;37.840;2023-08-24T05:05:35;7.55;;;5.30;;
45909;SDS011;31622;55.416;37.840;2023-08-24T05:08:01;13.13;;;5.65;;
45909;SDS011;31622;55.416;37.840;2023-08-24T05:10:31;8.30;;;5.47;;
45909;SDS011;31622;55.416;37.840;2023-08-24T05:12:58;10.15;;;4.95;;
45909;SDS011;31622;55.416;37.840;2023-08-24T05:15:24;9.23;;;5.60;;
45909;SDS011;31622;55.416;37.840;2023-08-24T05:17:49;7.88;;;5.20;;
45909;SDS011;31622;55.416;37.840;2023-08-24T05:20:19;7.03;;;5.05;;
45909;SDS011;31622;55.416;37.840;2023-08-24T05:22:44;10.02;;;4.80;;
45909;SDS011;31622;55.416;37.840;2023-08-24T05:25:10;8.00;;;4.93;;
45909;SDS011;31622;55.416;37.840;2023-08-24T05:27:36;7.57;;;5.40;;
45909;SDS011;31622;55.416;37.840;2023-08-24T05:30:02;12.25;;;5.13;;
45909;SDS011;31622;55.416;37.840;2023-08-24T05:32:29;9.45;;;5.90;;
45909;SDS011;31622;55.416;37.840;2023-08-24T05:34:54;8.45;;;5.68;;
45909;SDS011;31622;55.416;37.840;2023-08-24T05:37:20;8.35;;;5.53;;
45909;SDS011;31622;55.416;37.840;2023-08-24T05:39:46;8.02;;;5.50;;
45909;SDS011;31622;55.416;37.840;2023-08-24T05:42:11;7.43;;;4.90;;
45909;SDS011;31622;55.416;37.840;2023-08-24T05:44:37;8.32;;;5.32;;
45909;SDS011;31622;55.416;37.840;2023-08-24T05:47:03;9.32;;;5.15;;
45909;SDS011;31622;55.416;37.840;2023-08-24T05:49:29;9.23;;;5.53;;
45909;SDS011;31622;55.416;37.840;2023-08-24T05:51:55;7.32;;;5.57;;
45909;SDS011;31622;55.416;37.840;2023-08-24T05:54:20;9.15;;;5.55;;
45909;SDS011;31622;55.416;37.840;2023-08-24T05:56:46;8.07;;;6.00;;
45909;SDS011;31622;55.416;37.840;2023-08-24T05:59:13;8.35;;;5.60;;
45909;SDS011;31622;55.416;37.840;2023-08-24T06:01:39;9.30;;;5.10;;
45909;SDS011;31622;55.416;37.840;2023-08-24T06:04:09;9.05;;;6.03;;
45909;SDS011;31622;55.416;37.840;2023-08-24T06:06:35;8.63;;;5.65;;
45909;SDS011;31622;55.416;37.840;2023-08-24T06:09:01;9.77;;;5.90;;
45909;SDS011;31622;55.416;37.840;2023-08-24T06:11:29;8.80;;;6.07;;
45909;SDS011;31622;55.416;37.840;2023-08-24T06:13:55;8.63;;;5.40;;
45909;SDS011;31622;55.416;37.840;2023-08-24T06:16:21;9.35;;;4.85;;
45909;SDS011;31622;55.416;37.840;2023-08-24T06:18:47;11.95;;;5.97;;
45909;SDS011;31622;55.416;37.840;2023-08-24T06:21:14;11.90;;;5.60;;
45909;SDS011;31622;55.416;37.840;2023-08-24T06:23:40;10.00;;;4.80;;
45909;SDS011;31622;55.416;37.840;2023-08-24T06:26:06;12.15;;;5.57;;
45909;SDS011;31622;55.416;37.840;2023-08-24T06:28:32;11.13;;;5.88;;
45909;SDS011;31622;55.416;37.840;2023-08-24T06:30:59;12.98;;;5.88;;
45909;SDS011;31622;55.416;37.840;2023-08-24T06:33:28;16.02;;;6.20;;
45909;SDS011;31622;55.416;37.840;2023-08-24T06:35:57;17.90;;;6.80;;
45909;SDS011;31622;55.416;37.840;2023-08-24T06:38:23;20.75;;;6.35;;
45909;SDS011;31622;55.416;37.840;2023-08-24T06:40:48;17.48;;;6.57;;
45909;SDS011;31622;55.416;37.840;2023-08-24T06:43:14;17.38;;;6.45;;
45909;SDS011;31622;55.416;37.840;2023-08-24T06:45:40;19.83;;;6.00;;
45909;SDS011;31622;55.416;37.840;2023-08-24T06:48:06;16.52;;;6.72;;
45909;SDS011;31622;55.416;37.840;2023-08-24T06:50:32;19.35;;;6.82;;
45909;SDS011;31622;55.416;37.840;2023-08-24T06:52:58;13.40;;;6.30;;
45909;SDS011;31622;55.416;37.840;2023-08-24T06:55:25;12.98;;;6.50;;
45909;SDS011;31622;55.416;37.840;2023-08-24T06:57:52;12.82;;;6.25;;
45909;SDS011;31622;55.416;37.840;2023-08-24T07:00:18;9.20;;;5.78;;
45909;SDS011;31622;55.416;37.840;2023-08-24T07:02:47;16.63;;;6.43;;
45909;SDS011;31622;55.416;37.840;2023-08-24T07:05:14;10.27;;;5.68;;
45909;SDS011;31622;55.416;37.840;2023-08-24T07:07:40;10.93;;;5.85;;
45909;SDS011;31622;55.416;37.840;2023-08-24T07:10:09;11.02;;;5.60;;
45909;SDS011;31622;55.416;37.840;2023-08-24T07:12:35;12.73;;;6.72;;
45909;SDS011;31622;55.416;37.840;2023-08-24T07:15:01;13.70;;;7.13;;
45909;SDS011;31622;55.416;37.840;2023-08-24T07:17:27;11.38;;;6.25;;
45909;SDS011;31622;55.416;37.840;2023-08-24T07:19:52;15.98;;;6.78;;
45909;SDS011;31622;55.416;37.840;2023-08-24T07:22:19;12.95;;;7.18;;
45909;SDS011;31622;55.416;37.840;2023-08-24T07:24:45;10.63;;;6.53;;
45909;SDS011;31622;55.416;37.840;2023-08-24T07:27:10;11.82;;;5.75;;
45909;SDS011;31622;55.416;37.840;2023-08-24T07:29:36;10.75;;;6.78;;
45909;SDS011;31622;55.416;37.840;2023-08-24T07:32:02;10.18;;;5.20;;
45909;SDS011;31622;55.416;37.840;2023-08-24T07:34:28;10.30;;;5.22;;
45909;SDS011;31622;55.416;37.840;2023-08-24T07:36:54;11.93;;;6.25;;
45909;SDS011;31622;55.416;37.840;2023-08-24T07:39:20;13.30;;;6.13;;
45909;SDS011;31622;55.416;37.840;2023-08-24T07:41:45;8.25;;;5.45;;
45909;SDS011;31622;55.416;37.840;2023-08-24T07:44:11;13.25;;;5.90;;
45909;SDS011;31622;55.416;37.840;2023-08-24T07:46:40;8.55;;;5.07;;
45909;SDS011;31622;55.416;37.840;2023-08-24T07:49:06;8.73;;;5.60;;
45909;SDS011;31622;55.416;37.840;2023-08-24T07:51:35;8.65;;;5.15;;
45909;SDS011;31622;55.416;37.840;2023-08-24T07:54:01;9.93;;;4.72;;
45909;SDS011;31622;55.416;37.840;2023-08-24T07:56:27;8.05;;;5.30;;
45909;SDS011;31622;55.416;37.840;2023-08-24T07:58:52;7.55;;;5.10;;
45909;SDS011;31622;55.416;37.840;2023-08-24T08:01:18;8.50;;;6.38;;
45909;SDS011;31622;55.416;37.840;2023-08-24T08:03:43;7.00;;;4.00;;
45909;SDS011;31622;55.416;37.840;2023-08-24T08:06:09;6.15;;;4.57;;
45909;SDS011;31622;55.416;37.840;2023-08-24T08:08:35;9.70;;;6.03;;
45909;SDS011;31622;55.416;37.840;2023-08-24T08:11:01;10.30;;;4.63;;
45909;SDS011;31622;55.416;37.840;2023-08-24T08:13:31;7.20;;;4.97;;
45909;SDS011;31622;55.416;37.840;2023-08-24T08:16:03;6.80;;;4.63;;
45909;SDS011;31622;55.416;37.840;2023-08-24T08:18:30;7.95;;;5.05;;
45909;SDS011;31622;55.416;37.840;2023-08-24T08:20:59;7.43;;;4.47;;
45909;SDS011;31622;55.416;37.840;2023-08-24T08:23:25;9.05;;;4.13;;
45909;SDS011;31622;55.416;37.840;2023-08-24T08:25:50;5.80;;;3.90;;
45909;SDS011;31622;55.416;37.840;2023-08-24T08:28:17;5.70;;;4.80;;
45909;SDS011;31622;55.416;37.840;2023-08-24T08:30:43;6.55;;;4.97;;
45909;SDS011;31622;55.416;37.840;2023-08-24T08:33:09;6.30;;;4.72;;
45909;SDS011;31622;55.416;37.840;2023-08-24T08:35:35;7.78;;;5.05;;
45909;SDS011;31622;55.416;37.840;2023-08-24T08:38:02;11.25;;;5.28;;
45909;SDS011;31622;55.416;37.840;2023-08-24T08:40:29;7.80;;;5.28;;
45909;SDS011;31622;55.416;37.840;2023-08-24T08:42:56;5.75;;;4.65;;
45909;SDS011;31622;55.416;37.840;2023-08-24T08:45:24;6.78;;;4.70;;
45909;SDS011;31622;55.416;37.840;2023-08-24T08:48:00;5.65;;;4.90;;
45909;SDS011;31622;55.416;37.840;2023-08-24T08:50:26;7.18;;;4.97;;
45909;SDS011;31622;55.416;37.840;2023-08-24T08:52:52;7.13;;;5.60;;
45909;SDS011;31622;55.416;37.840;2023-08-24T08:55:18;7.20;;;4.90;;
45909;SDS011;31622;55.416;37.840;2023-08-24T08:57:48;5.25;;;4.53;;
45909;SDS011;31622;55.416;37.840;2023-08-24T09:00:14;6.28;;;4.30;;
45909;SDS011;31622;55.416;37.840;2023-08-24T09:02:45;6.50;;;4.57;;
45909;SDS011;31622;55.416;37.840;2023-08-24T09:05:11;5.75;;;4.35;;
45909;SDS011;31622;55.416;37.840;2023-08-24T09:07:40;5.25;;;4.03;;
45909;SDS011;31622;55.416;37.840;2023-08-24T09:10:07;5.35;;;4.25;;
45909;SDS011;31622;55.416;37.840;2023-08-24T09:12:33;6.50;;;4.00;;
45909;SDS011;31622;55.416;37.840;2023-08-24T09:15:02;7.85;;;4.40;;
45909;SDS011;31622;55.416;37.840;2023-08-24T09:17:29;6.32;;;4.80;;
45909;SDS011;31622;55.416;37.840;2023-08-24T09:20:00;5.90;;;4.15;;
45909;SDS011;31622;55.416;37.840;2023-08-24T09:22:35;6.22;;;4.43;;
45909;SDS011;31622;55.416;37.840;2023-08-24T09:25:02;6.15;;;4.40;;
45909;SDS011;31622;55.416;37.840;2023-08-24T09:27:29;5.22;;;4.00;;
45909;SDS011;31622;55.416;37.840;2023-08-24T09:29:56;5.70;;;4.63;;
45909;SDS011;31622;55.416;37.840;2023-08-24T09:32:24;5.00;;;4.10;;
45909;SDS011;31622;55.416;37.840;2023-08-24T09:34:53;6.47;;;4.07;;
45909;SDS011;31622;55.416;37.840;2023-08-24T09:37:19;5.63;;;4.15;;
45909;SDS011;31622;55.416;37.840;2023-08-24T09:39:45;4.70;;;4.03;;
45909;SDS011;31622;55.416;37.840;2023-08-24T09:42:12;5.25;;;3.97;;
45909;SDS011;31622;55.416;37.840;2023-08-24T09:44:41;6.00;;;3.83;;
45909;SDS011;31622;55.416;37.840;2023-08-24T09:47:09;4.65;;;3.67;;
45909;SDS011;31622;55.416;37.840;2023-08-24T09:49:36;6.60;;;3.90;;
45909;SDS011;31622;55.416;37.840;2023-08-24T09:52:01;4.82;;;3.80;;
45909;SDS011;31622;55.416;37.840;2023-08-24T09:54:28;5.35;;;3.85;;
45909;SDS011;31622;55.416;37.840;2023-08-24T09:56:56;5.10;;;4.00;;
45909;SDS011;31622;55.416;37.840;2023-08-24T09:59:23;4.72;;;3.83;;
45909;SDS011;31622;55.416;37.840;2023-08-24T10:01:52;3.90;;;3.08;;
45909;SDS011;31622;55.416;37.840;2023-08-24T10:04:23;4.57;;;3.15;;
45909;SDS011;31622;55.416;37.840;2023-08-24T10:06:55;3.97;;;3.35;;
45909;SDS011;31622;55.416;37.840;2023-08-24T10:09:22;6.03;;;3.35;;
45909;SDS011;31622;55.416;37.840;2023-08-24T10:11:56;4.43;;;3.33;;
45909;SDS011;31622;55.416;37.840;2023-08-24T10:14:27;5.47;;;3.95;;
45909;SDS011;31622;55.416;37.840;2023-08-24T10:16:56;4.93;;;4.15;;
45909;SDS011;31622;55.416;37.840;2023-08-24T10:19:23;4.47;;;3.67;;
45909;SDS011;31622;55.416;37.840;2023-08-24T10:21:49;5.72;;;4.05;;
45909;SDS011;31622;55.416;37.840;2023-08-24T10:24:16;6.30;;;4.45;;
45909;SDS011;31622;55.416;37.840;2023-08-24T10:26:42;6.43;;;4.22;;
45909;SDS011;31622;55.416;37.840;2023-08-24T10:29:08;6.65;;;4.05;;
45909;SDS011;31622;55.416;37.840;2023-08-24T10:31:34;5.88;;;4.60;;
45909;SDS011;31622;55.416;37.840;2023-08-24T10:34:01;5.05;;;4.20;;
45909;SDS011;31622;55.416;37.840;2023-08-24T10:36:27;5.95;;;4.32;;
45909;SDS011;31622;55.416;37.840;2023-08-24T10:38:55;7.15;;;4.78;;
45909;SDS011;31622;55.416;37.840;2023-08-24T10:41:25;12.15;;;5.18;;
45909;SDS011;31622;55.416;37.840;2023-08-24T10:43:52;5.55;;;3.88;;
45909;SDS011;31622;55.416;37.840;2023-08-24T10:46:17;8.95;;;4.88;;
45909;SDS011;31622;55.416;37.840;2023-08-24T10:53:43;9.38;;;5.10;;
45909;SDS011;31622;55.416;37.840;2023-08-24T10:56:13;14.02;;;6.60;;
45909;SDS011;31622;55.416;37.840;2023-08-24T10:58:40;12.60;;;6.15;;
45909;SDS011;31622;55.416;37.840;2023-08-24T11:01:06;10.10;;;5.45;;
45909;SDS011;31622;55.416;37.840;2023-08-24T11:03:32;11.75;;;5.40;;
45909;SDS011;31622;55.416;37.840;2023-08-24T11:05:58;9.52;;;4.07;;
45909;SDS011;31622;55.416;37.840;2023-08-24T11:11:21;8.07;;;4.63;;
45909;SDS011;31622;55.416;37.840;2023-08-24T11:16:42;9.98;;;6.40;;
45909;SDS011;31622;55.416;37.840;2023-08-24T11:19:10;9.63;;;6.05;;
45909;SDS011;31622;55.416;37.840;2023-08-24T11:21:37;11.95;;;6.20;;
45909;SDS011;31622;55.416;37.840;2023-08-24T11:24:04;8.30;;;6.80;;
45909;SDS011;31622;55.416;37.840;2023-08-24T11:26:31;9.15;;;6.35;;
45909;SDS011;31622;55.416;37.840;2023-08-24T11:28:56;7.80;;;6.05;;
45909;SDS011;31622;55.416;37.840;2023-08-24T11:31:23;9.60;;;6.78;;
45909;SDS011;31622;55.416;37.840;2023-08-24T11:33:53;9.05;;;6.63;;
45909;SDS011;31622;55.416;37.840;2023-08-24T11:36:22;10.98;;;6.63;;
45909;SDS011;31622;55.416;37.840;2023-08-24T11:38:49;9.60;;;7.25;;
45909;SDS011;31622;55.416;37.840;2023-08-24T11:41:17;8.82;;;6.10;;
45909;SDS011;31622;55.416;37.840;2023-08-24T11:43:44;11.77;;;6.18;;
45909;SDS011;31622;55.416;37.840;2023-08-24T11:46:10;10.60;;;6.95;;
45909;SDS011;31622;55.416;37.840;2023-08-24T11:48:37;9.30;;;7.07;;
45909;SDS011;31622;55.416;37.840;2023-08-24T11:51:07;8.93;;;7.45;;
45909;SDS011;31622;55.416;37.840;2023-08-24T11:53:36;12.45;;;8.27;;
45909;SDS011;31622;55.416;37.840;2023-08-24T11:56:02;10.95;;;8.32;;
45909;SDS011;31622;55.416;37.840;2023-08-24T11:58:31;11.43;;;7.80;;
45909;SDS011;31622;55.416;37.840;2023-08-24T12:00:57;10.07;;;8.85;;
45909;SDS011;31622;55.416;37.840;2023-08-24T12:03:23;10.90;;;8.77;;
45909;SDS011;31622;55.416;37.840;2023-08-24T12:05:49;9.77;;;8.77;;
45909;SDS011;31622;55.416;37.840;2023-08-24T12:08:15;12.50;;;9.50;;
45909;SDS011;31622;55.416;37.840;2023-08-24T12:10:43;11.45;;;9.85;;
45909;SDS011;31622;55.416;37.840;2023-08-24T12:13:11;13.40;;;8.80;;
45909;SDS011;31622;55.416;37.840;2023-08-24T12:15:37;10.23;;;7.95;;
45909;SDS011;31622;55.416;37.840;2023-08-24T12:18:06;9.18;;;8.13;;
45909;SDS011;31622;55.416;37.840;2023-08-24T12:20:35;8.18;;;7.38;;
45909;SDS011;31622;55.416;37.840;2023-08-24T12:23:01;9.00;;;7.55;;
45909;SDS011;31622;55.416;37.840;2023-08-24T12:25:27;8.00;;;7.20;;
45909;SDS011;31622;55.416;37.840;2023-08-24T12:28:07;7.55;;;6.50;;
45909;SDS011;31622;55.416;37.840;2023-08-24T12:30:45;8.23;;;6.57;;
45909;SDS011;31622;55.416;37.840;2023-08-24T12:33:57;7.75;;;6.60;;
45909;SDS011;31622;55.416;37.840;2023-08-24T12:36:06;8.32;;;6.53;;
45909;SDS011;31622;55.416;37.840;2023-08-24T12:38:32;7.70;;;5.97;;
45909;SDS011;31622;55.416;37.840;2023-08-24T12:41:00;6.65;;;5.95;;
45909;SDS011;31622;55.416;37.840;2023-08-24T12:43:25;6.22;;;5.63;;
45909;SDS011;31622;55.416;37.840;2023-08-24T12:45:51;8.45;;;5.50;;
45909;SDS011;31622;55.416;37.840;2023-08-24T12:48:17;7.53;;;5.60;;
45909;SDS011;31622;55.416;37.840;2023-08-24T12:50:43;7.00;;;5.57;;
45909;SDS011;31622;55.416;37.840;2023-08-24T12:53:09;7.18;;;5.05;;
45909;SDS011;31622;55.416;37.840;2023-08-24T12:55:35;6.10;;;5.50;;
45909;SDS011;31622;55.416;37.840;2023-08-24T12:58:02;6.93;;;5.45;;
45909;SDS011;31622;55.416;37.840;2023-08-24T13:00:29;6.72;;;5.25;;
45909;SDS011;31622;55.416;37.840;2023-08-24T13:02:55;6.75;;;4.55;;
45909;SDS011;31622;55.416;37.840;2023-08-24T13:05:21;7.32;;;5.10;;
45909;SDS011;31622;55.416;37.840;2023-08-24T13:07:47;9.60;;;5.88;;
45909;SDS011;31622;55.416;37.840;2023-08-24T13:10:13;12.65;;;7.03;;
45909;SDS011;31622;55.416;37.840;2023-08-24T13:12:39;15.40;;;7.45;;
45909;SDS011;31622;55.416;37.840;2023-08-24T13:15:05;13.48;;;6.68;;
45909;SDS011;31622;55.416;37.840;2023-08-24T13:17:31;10.88;;;5.53;;
45909;SDS011;31622;55.416;37.840;2023-08-24T13:19:57;8.32;;;5.65;;
45909;SDS011;31622;55.416;37.840;2023-08-24T13:22:22;10.05;;;5.60;;
45909;SDS011;31622;55.416;37.840;2023-08-24T13:24:48;10.00;;;5.78;;
45909;SDS011;31622;55.416;37.840;2023-08-24T13:27:14;8.98;;;5.60;;
45909;SDS011;31622;55.416;37.840;2023-08-24T13:29:40;8.38;;;4.80;;
45909;SDS011;31622;55.416;37.840;2023-08-24T13:32:06;12.07;;;5.55;;
45909;SDS011;31622;55.416;37.840;2023-08-24T13:34:32;9.35;;;5.15;;
45909;SDS011;31622;55.416;37.840;2023-08-24T13:36:58;13.07;;;5.75;;
45909;SDS011;31622;55.416;37.840;2023-08-24T13:39:27;10.50;;;5.75;;
45909;SDS011;31622;55.416;37.840;2023-08-24T13:41:57;9.48;;;6.10;;
45909;SDS011;31622;55.416;37.840;2023-08-24T13:44:24;11.40;;;5.80;;
45909;SDS011;31622;55.416;37.840;2023-08-24T13:46:50;10.13;;;6.30;;
45909;SDS011;31622;55.416;37.840;2023-08-24T13:49:17;10.60;;;6.28;;
45909;SDS011;31622;55.416;37.840;2023-08-24T13:51:44;7.90;;;6.03;;
45909;SDS011;31622;55.416;37.840;2023-08-24T13:54:16;10.93;;;6.25;;
45909;SDS011;31622;55.416;37.840;2023-08-24T13:56:43;8.95;;;6.78;;
45909;SDS011;31622;55.416;37.840;2023-08-24T13:59:09;8.68;;;6.00;;
45909;SDS011;31622;55.416;37.840;2023-08-24T14:01:35;10.18;;;6.43;;
45909;SDS011;31622;55.416;37.840;2023-08-24T14:04:01;9.88;;;6.68;;
45909;SDS011;31622;55.416;37.840;2023-08-24T14:06:28;8.48;;;5.95;;
45909;SDS011;31622;55.416;37.840;2023-08-24T14:08:55;9.70;;;5.60;;
45909;SDS011;31622;55.416;37.840;2023-08-24T14:11:21;10.73;;;6.10;;
45909;SDS011;31622;55.416;37.840;2023-08-24T14:13:47;9.15;;;5.30;;
45909;SDS011;31622;55.416;37.840;2023-08-24T14:16:13;8.73;;;5.68;;
45909;SDS011;31622;55.416;37.840;2023-08-24T14:18:38;7.25;;;5.28;;
45909;SDS011;31622;55.416;37.840;2023-08-24T14:21:04;8.43;;;5.53;;
45909;SDS011;31622;55.416;37.840;2023-08-24T14:23:30;7.57;;;5.30;;
45909;SDS011;31622;55.416;37.840;2023-08-24T14:25:56;9.93;;;5.40;;
45909;SDS011;31622;55.416;37.840;2023-08-24T14:28:22;9.43;;;5.30;;
45909;SDS011;31622;55.416;37.840;2023-08-24T14:30:48;7.57;;;5.57;;
45909;SDS011;31622;55.416;37.840;2023-08-24T14:33:15;7.50;;;5.53;;
45909;SDS011;31622;55.416;37.840;2023-08-24T14:35:40;7.45;;;5.35;;
45909;SDS011;31622;55.416;37.840;2023-08-24T14:38:06;10.25;;;5.30;;
45909;SDS011;31622;55.416;37.840;2023-08-24T14:40:31;9.07;;;6.05;;
45909;SDS011;31622;55.416;37.840;2023-08-24T14:42:57;8.13;;;5.18;;
45909;SDS011;31622;55.416;37.840;2023-08-24T14:45:23;8.05;;;4.95;;
45909;SDS011;31622;55.416;37.840;2023-08-24T14:47:48;6.82;;;4.88;;
45909;SDS011;31622;55.416;37.840;2023-08-24T14:50:14;7.03;;;5.32;;
45909;SDS011;31622;55.416;37.840;2023-08-24T14:52:40;7.22;;;5.15;;
45909;SDS011;31622;55.416;37.840;2023-08-24T14:55:06;6.70;;;4.93;;